createdAt,value
2022-11-29T00:02:23.162Z,2.10
2022-11-29T00:04:51.205Z,1.90
2022-11-29T00:07:20.690Z,1.70
2022-11-29T00:09:48.680Z,1.70
2022-11-29T00:12:16.692Z,2.00
2022-11-29T00:14:44.942Z,1.90
2022-11-29T00:17:13.042Z,1.80
2022-11-29T00:19:41.118Z,1.80
2022-11-29T00:22:09.079Z,1.80
2022-11-29T00:24:38.412Z,1.70
2022-11-29T00:27:06.390Z,1.80
2022-11-29T00:29:34.336Z,1.90
2022-11-29T00:32:02.347Z,1.80
2022-11-29T00:34:30.362Z,1.80
2022-11-29T00:36:58.611Z,1.70
2022-11-29T00:39:26.779Z,1.80
2022-11-29T00:41:56.249Z,1.60
2022-11-29T00:44:24.189Z,1.60
2022-11-29T00:46:52.287Z,1.40
2022-11-29T00:49:20.336Z,1.40
2022-11-29T00:51:48.329Z,1.50
2022-11-29T00:54:16.400Z,1.40
2022-11-29T00:56:44.888Z,1.30
2022-11-29T00:59:14.203Z,1.30
2022-11-29T01:01:42.291Z,1.40
2022-11-29T01:04:10.393Z,1.70
2022-11-29T01:06:38.526Z,1.60
2022-11-29T01:09:07.073Z,1.30
2022-11-29T01:11:35.464Z,1.20
2022-11-29T01:14:04.065Z,1.10
2022-11-29T01:16:33.822Z,1.20
2022-11-29T01:19:02.598Z,1.10
2022-11-29T01:21:30.949Z,1.10
2022-11-29T01:23:59.004Z,1.20
2022-11-29T01:26:29.436Z,1.40
2022-11-29T01:28:59.253Z,1.40
2022-11-29T01:31:29.929Z,1.60
2022-11-29T01:34:01.410Z,1.30
2022-11-29T01:36:29.658Z,1.10
2022-11-29T01:38:59.679Z,1.00
2022-11-29T01:41:29.491Z,1.00
2022-11-29T01:44:02.562Z,0.90
2022-11-29T01:46:32.754Z,0.90
2022-11-29T01:49:06.386Z,0.90
2022-11-29T01:51:36.962Z,0.80
2022-11-29T01:54:06.002Z,0.80
2022-11-29T01:56:35.774Z,0.90
2022-11-29T01:59:07.310Z,0.80
2022-11-29T02:01:36.144Z,0.80
2022-11-29T02:04:06.664Z,0.60
2022-11-29T02:06:35.377Z,0.50
2022-11-29T02:09:03.893Z,0.70
2022-11-29T02:12:05.227Z,0.70
2022-11-29T02:14:53.528Z,0.80
2022-11-29T02:17:32.006Z,1.10
2022-11-29T02:20:36.063Z,1.30
2022-11-29T02:23:24.581Z,1.20
2022-11-29T02:26:04.410Z,0.90
2022-11-29T02:29:16.355Z,0.80
2022-11-29T02:32:44.307Z,0.90
2022-11-29T02:35:25.378Z,0.90
2022-11-29T02:38:14.908Z,0.90
2022-11-29T02:41:02.091Z,1.10
2022-11-29T02:44:01.556Z,1.20
2022-11-29T02:46:48.467Z,1.30
2022-11-29T02:49:32.879Z,1.30
2022-11-29T02:52:04.138Z,1.40
2022-11-29T02:54:49.608Z,1.40
2022-11-29T02:57:26.004Z,1.20
2022-11-29T02:59:59.858Z,1.30
2022-11-29T03:02:36.590Z,1.50
2022-11-29T03:05:13.883Z,1.50
2022-11-29T03:07:50.301Z,1.40
2022-11-29T03:10:32.043Z,1.50
2022-11-29T03:13:01.191Z,1.50
2022-11-29T03:15:32.231Z,1.30
2022-11-29T03:18:17.819Z,1.20
2022-11-29T03:21:01.554Z,1.40
2022-11-29T03:23:35.461Z,1.40
2022-11-29T03:26:08.251Z,1.40
2022-11-29T03:28:40.594Z,1.40
2022-11-29T03:31:16.930Z,1.40
2022-11-29T03:34:05.096Z,1.30
2022-11-29T03:36:42.214Z,1.00
2022-11-29T03:39:18.341Z,1.10
2022-11-29T03:41:54.404Z,1.10
2022-11-29T03:44:28.080Z,1.00
2022-11-29T03:46:59.507Z,1.00
2022-11-29T03:49:32.062Z,1.00
2022-11-29T03:52:13.205Z,0.90
2022-11-29T03:54:53.940Z,0.70
2022-11-29T03:57:31.655Z,0.70
2022-11-29T04:00:07.685Z,0.70
2022-11-29T04:03:11.885Z,0.70
2022-11-29T04:06:07.927Z,1.00
2022-11-29T04:09:07.895Z,1.10
2022-11-29T04:12:04.851Z,1.00
2022-11-29T04:14:39.686Z,0.70
2022-11-29T04:17:42.500Z,0.60
2022-11-29T04:20:42.026Z,0.70
2022-11-29T04:23:47.296Z,0.60
2022-11-29T04:26:47.764Z,0.90
2022-11-29T04:29:36.962Z,0.80
2022-11-29T04:32:22.516Z,0.60
2022-11-29T04:35:24.436Z,0.50
2022-11-29T04:38:22.139Z,0.30
2022-11-29T04:41:06.232Z,0.50
2022-11-29T04:44:04.397Z,0.60
2022-11-29T04:47:01.736Z,0.50
2022-11-29T04:49:51.378Z,0.50
2022-11-29T04:52:32.031Z,0.60
2022-11-29T04:55:09.217Z,0.70
2022-11-29T04:57:45.124Z,0.60
2022-11-29T05:00:14.453Z,0.40
2022-11-29T05:02:54.648Z,0.40
2022-11-29T05:05:31.546Z,0.50
2022-11-29T05:08:22.530Z,0.70
2022-11-29T05:10:59.799Z,0.60
2022-11-29T05:13:35.286Z,0.60
2022-11-29T05:16:34.430Z,0.60
2022-11-29T05:19:25.164Z,0.50
2022-11-29T05:22:02.132Z,0.40
2022-11-29T05:24:43.855Z,0.40
2022-11-29T05:27:19.051Z,0.40
2022-11-29T05:29:55.343Z,0.30
2022-11-29T05:32:30.770Z,0.50
2022-11-29T05:35:25.164Z,0.50
2022-11-29T05:37:55.986Z,0.20
2022-11-29T05:40:45.338Z,0.10
2022-11-29T05:43:45.922Z,0.00
2022-11-29T05:46:20.847Z,0.20
2022-11-29T05:48:58.478Z,0.00
2022-11-29T05:51:41.334Z,0.10
2022-11-29T05:54:20.928Z,0.00
2022-11-29T05:56:58.472Z,0.00
2022-11-29T05:59:29.543Z,0.10
2022-11-29T06:02:11.923Z,0.20
2022-11-29T06:05:06.535Z,0.30
2022-11-29T06:07:44.667Z,0.30
2022-11-29T06:10:17.730Z,0.40
2022-11-29T06:12:55.781Z,0.40
2022-11-29T06:16:08.887Z,0.20
2022-11-29T06:19:01.874Z,0.10
2022-11-29T06:21:40.180Z,0.10
2022-11-29T06:24:36.078Z,0.10
2022-11-29T06:27:36.409Z,0.20
2022-11-29T06:30:09.839Z,0.10
2022-11-29T06:32:45.823Z,0.10
2022-11-29T06:35:33.391Z,0.00
2022-11-29T06:38:09.333Z,-0.20
2022-11-29T06:40:39.725Z,0.00
2022-11-29T06:43:08.257Z,0.20
2022-11-29T06:45:37.070Z,0.40
2022-11-29T06:48:07.936Z,0.10
2022-11-29T06:50:51.183Z,0.10
2022-11-29T06:53:27.145Z,0.20
2022-11-29T06:56:05.170Z,0.10
2022-11-29T06:58:46.276Z,-0.10
2022-11-29T07:01:29.397Z,0.60
2022-11-29T07:04:13.113Z,0.50
2022-11-29T07:06:41.640Z,0.50
2022-11-29T07:09:15.173Z,0.40
2022-11-29T07:11:45.763Z,0.40
2022-11-29T07:14:14.643Z,0.40
2022-11-29T07:16:57.159Z,0.30
2022-11-29T07:19:36.738Z,0.10
2022-11-29T07:22:21.767Z,0.00
2022-11-29T07:25:02.135Z,0.10
2022-11-29T07:27:39.619Z,0.20
2022-11-29T07:30:15.485Z,0.40
2022-11-29T07:33:00.069Z,0.50
2022-11-29T07:35:35.223Z,0.40
2022-11-29T07:38:11.179Z,0.20
2022-11-29T07:40:49.456Z,0.20
2022-11-29T07:43:29.914Z,0.00
2022-11-29T07:45:58.330Z,0.20
2022-11-29T07:48:26.938Z,0.30
2022-11-29T07:50:55.547Z,0.40
2022-11-29T07:53:24.645Z,0.30
2022-11-29T07:55:52.846Z,0.40
2022-11-29T07:58:22.225Z,0.40
2022-11-29T08:00:50.736Z,0.50
2022-11-29T08:03:18.833Z,0.30
2022-11-29T08:05:48.327Z,0.50
2022-11-29T08:08:16.873Z,0.80
2022-11-29T08:10:46.067Z,0.80
2022-11-29T08:13:21.583Z,0.90
2022-11-29T08:15:51.303Z,1.00
2022-11-29T08:18:19.657Z,0.90
2022-11-29T08:20:47.931Z,0.80
2022-11-29T08:23:16.693Z,1.00
2022-11-29T08:25:46.298Z,0.90
2022-11-29T08:28:14.961Z,1.00
2022-11-29T08:30:43.044Z,1.00
2022-11-29T08:33:12.414Z,1.00
2022-11-29T08:35:42.763Z,1.10
2022-11-29T08:38:11.807Z,1.30
2022-11-29T08:40:39.805Z,1.40
2022-11-29T08:43:07.900Z,1.40
2022-11-29T08:45:35.926Z,1.30
2022-11-29T08:48:04.024Z,1.30
2022-11-29T08:50:34.280Z,1.30
2022-11-29T08:53:19.701Z,1.30
2022-11-29T08:55:47.737Z,1.40
2022-11-29T08:58:16.833Z,1.50
2022-11-29T09:00:46.801Z,1.80
2022-11-29T09:03:32.156Z,1.90
2022-11-29T09:06:11.921Z,2.00
2022-11-29T09:08:40.553Z,1.90
2022-11-29T09:11:13.181Z,1.90
2022-11-29T09:13:42.083Z,1.90
2022-11-29T09:16:11.996Z,1.80
2022-11-29T09:18:41.403Z,1.90
2022-11-29T09:21:12.608Z,1.90
2022-11-29T09:23:42.111Z,1.80
2022-11-29T09:26:16.673Z,2.00
2022-11-29T09:28:44.686Z,1.80
2022-11-29T09:31:15.098Z,1.50
2022-11-29T09:33:43.426Z,1.60
2022-11-29T09:36:29.832Z,1.80
2022-11-29T09:38:57.902Z,1.80
2022-11-29T09:41:45.607Z,1.90
2022-11-29T09:44:22.231Z,2.10
2022-11-29T09:46:58.848Z,1.90
2022-11-29T09:49:52.004Z,2.00
2022-11-29T09:52:31.609Z,2.10
2022-11-29T09:55:11.203Z,2.00
2022-11-29T09:57:41.328Z,2.00
2022-11-29T10:00:17.623Z,1.90
2022-11-29T10:02:49.107Z,2.10
2022-11-29T10:05:23.137Z,1.80
2022-11-29T10:08:01.454Z,2.00
2022-11-29T10:10:37.826Z,2.00
2022-11-29T10:13:15.768Z,2.00
2022-11-29T10:15:46.885Z,2.10
2022-11-29T10:18:23.907Z,2.00
2022-11-29T10:20:55.109Z,2.00
2022-11-29T10:23:30.434Z,2.10
2022-11-29T10:25:59.468Z,2.20
2022-11-29T10:28:31.248Z,2.30
2022-11-29T10:31:04.298Z,2.30
2022-11-29T10:33:36.924Z,2.30
2022-11-29T10:36:12.127Z,2.30
2022-11-29T10:38:42.470Z,2.50
2022-11-29T10:41:15.413Z,2.50
2022-11-29T10:43:43.741Z,2.60
2022-11-29T10:46:17.349Z,2.50
2022-11-29T10:48:45.723Z,2.60
2022-11-29T10:51:18.154Z,2.60
2022-11-29T10:53:47.756Z,2.70
2022-11-29T10:56:24.158Z,2.70
2022-11-29T10:59:03.317Z,2.90
2022-11-29T11:01:33.390Z,3.10
2022-11-29T11:04:04.324Z,3.30
2022-11-29T11:06:46.123Z,3.50
2022-11-29T11:09:22.464Z,3.70
2022-11-29T11:11:55.092Z,3.70
2022-11-29T11:14:25.104Z,3.20
2022-11-29T11:16:54.085Z,3.20
2022-11-29T11:19:32.715Z,3.10
2022-11-29T11:22:03.635Z,3.20
2022-11-29T11:24:37.049Z,3.10
2022-11-29T11:27:05.266Z,3.20
2022-11-29T11:29:38.351Z,3.20
2022-11-29T11:32:08.816Z,3.30
2022-11-29T11:34:37.938Z,3.40
2022-11-29T11:37:22.597Z,3.40
2022-11-29T11:39:53.507Z,3.50
2022-11-29T11:42:41.011Z,3.40
2022-11-29T11:45:28.276Z,3.50
2022-11-29T11:47:59.490Z,3.40
2022-11-29T11:50:34.247Z,3.60
2022-11-29T11:53:06.472Z,3.50
2022-11-29T11:55:39.997Z,3.60
2022-11-29T11:58:17.447Z,3.60
2022-11-29T12:01:04.002Z,3.70
2022-11-29T12:03:56.041Z,3.80
2022-11-29T12:06:37.386Z,3.70
2022-11-29T12:09:13.478Z,3.70
2022-11-29T12:11:52.509Z,3.80
2022-11-29T12:14:29.611Z,3.80
2022-11-29T12:17:06.318Z,3.90
2022-11-29T12:19:42.796Z,3.90
2022-11-29T12:22:17.662Z,3.90
2022-11-29T12:24:54.144Z,3.90
2022-11-29T12:27:23.678Z,3.80
2022-11-29T12:29:52.131Z,4.00
2022-11-29T12:32:42.946Z,3.90
2022-11-29T12:35:34.971Z,3.80
2022-11-29T12:38:11.922Z,3.90
2022-11-29T12:40:47.094Z,4.00
2022-11-29T12:43:27.877Z,4.00
2022-11-29T12:46:04.562Z,3.80
2022-11-29T12:48:42.039Z,3.70
2022-11-29T12:51:22.925Z,3.80
2022-11-29T12:54:11.772Z,3.70
2022-11-29T12:56:47.968Z,3.70
2022-11-29T12:59:27.838Z,3.70
2022-11-29T13:02:16.615Z,3.70
2022-11-29T13:04:58.096Z,3.70
2022-11-29T13:07:35.158Z,3.70
2022-11-29T13:10:26.479Z,3.70
2022-11-29T13:12:56.916Z,3.70
2022-11-29T13:15:36.885Z,3.80
2022-11-29T13:18:12.106Z,3.90
2022-11-29T13:20:45.909Z,3.90
2022-11-29T13:23:39.103Z,4.00
2022-11-29T13:26:13.659Z,4.00
2022-11-29T13:28:46.988Z,3.90
2022-11-29T13:31:19.467Z,3.90
2022-11-29T13:33:56.003Z,4.00
2022-11-29T13:36:40.993Z,3.90
2022-11-29T13:39:23.399Z,3.90
2022-11-29T13:41:58.329Z,3.90
2022-11-29T13:44:34.742Z,3.70
2022-11-29T13:47:08.329Z,3.80
2022-11-29T13:49:57.418Z,3.70
2022-11-29T13:52:39.020Z,3.70
2022-11-29T13:55:29.157Z,3.70
2022-11-29T13:58:18.872Z,3.70
2022-11-29T14:00:52.336Z,3.70
2022-11-29T14:03:31.072Z,3.60
2022-11-29T14:06:21.876Z,3.60
2022-11-29T14:09:23.445Z,3.60
2022-11-29T14:11:58.948Z,3.60
2022-11-29T14:14:32.017Z,3.60
2022-11-29T14:17:02.242Z,3.80
2022-11-29T14:19:34.430Z,3.90
2022-11-29T14:22:31.098Z,3.90
2022-11-29T14:28:31.063Z,3.70
2022-11-29T14:31:01.579Z,3.50
2022-11-29T14:34:00.614Z,3.60
2022-11-29T14:36:47.377Z,3.50
2022-11-29T14:39:32.165Z,3.60
2022-11-29T14:42:14.435Z,3.50
2022-11-29T14:44:48.135Z,3.40
2022-11-29T14:47:25.035Z,3.40
2022-11-29T14:49:55.150Z,3.40
2022-11-29T14:52:29.346Z,3.40
2022-11-29T14:55:04.804Z,3.30
2022-11-29T14:58:06.355Z,3.20
2022-11-29T15:01:08.086Z,3.30
2022-11-29T15:03:44.483Z,3.30
2022-11-29T15:06:25.514Z,3.20
2022-11-29T15:09:03.226Z,3.10
2022-11-29T15:11:50.943Z,3.10
2022-11-29T15:14:27.894Z,3.00
2022-11-29T15:17:06.031Z,3.00
2022-11-29T15:20:12.746Z,2.80
2022-11-29T15:22:49.023Z,2.80
2022-11-29T15:25:21.764Z,2.80
2022-11-29T15:27:54.435Z,2.70
2022-11-29T15:30:30.182Z,2.90
2022-11-29T15:32:59.252Z,2.80
2022-11-29T15:35:27.534Z,2.90
2022-11-29T15:37:56.077Z,2.90
2022-11-29T15:40:35.120Z,2.80
2022-11-29T15:43:16.434Z,2.70
2022-11-29T15:45:49.056Z,2.60
2022-11-29T15:48:22.168Z,2.60
2022-11-29T15:51:05.696Z,2.40
2022-11-29T15:53:38.534Z,2.30
2022-11-29T15:56:14.976Z,2.10
2022-11-29T15:58:44.598Z,2.10
2022-11-29T16:01:19.830Z,1.90
2022-11-29T16:03:49.750Z,1.80
2022-11-29T16:06:26.576Z,1.80
2022-11-29T16:08:55.372Z,1.80
2022-11-29T16:11:28.792Z,1.90
2022-11-29T16:14:05.273Z,1.90
2022-11-29T16:16:35.483Z,1.80
2022-11-29T16:19:12.231Z,1.70
2022-11-29T16:21:40.880Z,1.70
2022-11-29T16:24:22.422Z,1.50
2022-11-29T16:26:52.427Z,1.60
2022-11-29T16:29:24.606Z,1.40
2022-11-29T16:31:53.158Z,1.30
2022-11-29T16:34:27.264Z,1.30
2022-11-29T16:37:06.375Z,1.30
2022-11-29T16:39:36.025Z,1.40
2022-11-29T16:42:14.570Z,1.20
2022-11-29T16:45:07.024Z,1.30
2022-11-29T16:47:48.914Z,1.20
2022-11-29T16:50:19.863Z,1.20
2022-11-29T16:52:52.023Z,1.10
2022-11-29T16:55:23.117Z,1.10
2022-11-29T16:57:52.531Z,1.20
2022-11-29T17:00:30.011Z,1.20
2022-11-29T17:02:58.255Z,1.10
2022-11-29T17:05:26.422Z,1.00
2022-11-29T17:07:54.786Z,1.20
2022-11-29T17:10:25.320Z,1.40
2022-11-29T17:12:54.668Z,1.50
2022-11-29T17:15:22.657Z,1.40
2022-11-29T17:17:50.785Z,1.50
2022-11-29T17:20:18.840Z,1.40
2022-11-29T17:22:46.907Z,1.20
2022-11-29T17:25:14.877Z,1.20
2022-11-29T17:27:42.846Z,1.30
2022-11-29T17:30:13.468Z,1.10
2022-11-29T17:32:41.440Z,1.00
2022-11-29T17:35:10.030Z,1.00
2022-11-29T17:37:38.025Z,1.00
2022-11-29T17:40:06.901Z,0.80
2022-11-29T17:42:34.838Z,0.70
2022-11-29T17:45:02.815Z,0.70
2022-11-29T17:47:33.170Z,0.80
2022-11-29T17:50:01.137Z,0.70
2022-11-29T17:52:29.110Z,0.80
2022-11-29T17:54:57.083Z,0.90
2022-11-29T17:57:25.060Z,1.20
2022-11-29T17:59:53.054Z,1.50
2022-11-29T18:02:21.274Z,1.50
2022-11-29T18:04:50.630Z,1.40
2022-11-29T18:07:18.746Z,1.30
2022-11-29T18:09:48.429Z,1.20
2022-11-29T18:12:16.710Z,1.20
2022-11-29T18:14:44.682Z,1.30
2022-11-29T18:17:13.698Z,1.30
2022-11-29T18:19:42.235Z,1.30
2022-11-29T18:22:11.577Z,1.30
2022-11-29T18:24:43.418Z,1.30
2022-11-29T18:27:11.420Z,1.30
2022-11-29T18:29:39.526Z,1.40
2022-11-29T18:32:07.520Z,1.40
2022-11-29T18:34:35.514Z,1.50
2022-11-29T18:37:03.480Z,1.60
2022-11-29T18:39:32.838Z,1.70
2022-11-29T18:42:00.810Z,1.80
2022-11-29T18:44:30.331Z,1.80
2022-11-29T18:46:58.923Z,1.90
2022-11-29T18:49:26.899Z,1.60
2022-11-29T18:51:54.865Z,1.50
2022-11-29T18:54:22.826Z,1.30
2022-11-29T18:56:52.712Z,1.40
2022-11-29T18:59:22.078Z,1.40
2022-11-29T19:01:50.546Z,1.40
2022-11-29T19:04:20.546Z,1.70
2022-11-29T19:06:48.941Z,1.90
2022-11-29T19:09:19.316Z,2.10
2022-11-29T19:11:48.677Z,2.10
2022-11-29T19:14:18.553Z,2.10
2022-11-29T19:16:48.106Z,1.80
2022-11-29T19:19:18.609Z,2.00
2022-11-29T19:21:46.637Z,2.00
2022-11-29T19:24:17.709Z,1.60
2022-11-29T19:26:47.585Z,1.60
2022-11-29T19:29:17.361Z,1.60
2022-11-29T19:31:45.388Z,1.70
2022-11-29T19:34:13.525Z,1.80
2022-11-29T19:36:43.631Z,1.80
2022-11-29T19:39:14.045Z,1.90
2022-11-29T19:41:43.367Z,1.80
2022-11-29T19:44:12.368Z,2.00
2022-11-29T19:46:43.614Z,2.20
2022-11-29T19:49:12.425Z,2.20
2022-11-29T19:51:40.446Z,2.20
2022-11-29T19:54:10.084Z,2.00
2022-11-29T19:56:38.989Z,2.10
2022-11-29T19:59:07.948Z,2.20
2022-11-29T20:01:43.851Z,2.50
2022-11-29T20:04:16.727Z,2.70
2022-11-29T20:06:45.426Z,2.40
2022-11-29T20:09:14.533Z,2.30
2022-11-29T20:11:42.516Z,2.10
2022-11-29T20:14:14.527Z,2.10
2022-11-29T20:16:43.608Z,2.20
2022-11-29T20:19:14.773Z,2.20
2022-11-29T20:21:45.301Z,2.30
2022-11-29T20:24:14.568Z,2.30
2022-11-29T20:26:44.974Z,2.10
2022-11-29T20:29:14.163Z,2.30
2022-11-29T20:31:49.623Z,2.50
2022-11-29T20:34:21.626Z,2.70
2022-11-29T20:37:19.112Z,2.60
2022-11-29T20:39:53.994Z,2.30
2022-11-29T20:42:51.259Z,2.20
2022-11-29T20:45:19.678Z,2.40
2022-11-29T20:47:52.502Z,2.40
2022-11-29T20:50:24.487Z,2.00
2022-11-29T20:53:04.767Z,2.00
2022-11-29T20:55:32.763Z,2.00
2022-11-29T20:58:00.751Z,2.10
2022-11-29T21:00:28.713Z,2.30
2022-11-29T21:02:56.710Z,2.40
2022-11-29T21:05:26.128Z,2.20
2022-11-29T21:07:54.367Z,2.30
2022-11-29T21:10:22.567Z,2.50
2022-11-29T21:12:51.047Z,2.30
2022-11-29T21:15:19.896Z,2.40
2022-11-29T21:17:48.614Z,2.50
2022-11-29T21:20:21.446Z,2.30
2022-11-29T21:22:58.918Z,2.40
2022-11-29T21:25:39.885Z,2.30
2022-11-29T21:28:11.945Z,2.30
2022-11-29T21:30:40.657Z,2.40
2022-11-29T21:33:09.629Z,2.50
2022-11-29T21:35:39.703Z,2.40
2022-11-29T21:38:15.671Z,2.50
2022-11-29T21:40:43.636Z,2.70
2022-11-29T21:43:11.616Z,2.60
2022-11-29T21:45:39.558Z,2.50
2022-11-29T21:48:28.565Z,2.10
2022-11-29T21:50:57.607Z,1.90
2022-11-29T21:53:27.985Z,2.20
2022-11-29T21:56:00.346Z,2.20
2022-11-29T21:58:30.404Z,2.40
2022-11-29T22:01:05.750Z,2.50
2022-11-29T22:03:33.819Z,2.70
2022-11-29T22:06:03.560Z,2.40
2022-11-29T22:08:36.416Z,2.50
2022-11-29T22:11:06.006Z,2.50
2022-11-29T22:13:34.459Z,2.50
2022-11-29T22:16:10.262Z,2.50
2022-11-29T22:18:38.586Z,2.40
2022-11-29T22:21:08.311Z,2.50
2022-11-29T22:23:37.617Z,2.60
2022-11-29T22:26:06.879Z,2.40
2022-11-29T22:28:35.449Z,2.30
2022-11-29T22:31:05.171Z,2.30
2022-11-29T22:33:33.996Z,2.00
2022-11-29T22:36:05.931Z,1.80
2022-11-29T22:38:33.929Z,1.70
2022-11-29T22:41:04.889Z,1.70
2022-11-29T22:43:33.796Z,2.00
2022-11-29T22:46:05.904Z,2.20
2022-11-29T22:48:38.503Z,2.10
2022-11-29T22:51:08.232Z,2.10
2022-11-29T22:53:37.023Z,2.20
2022-11-29T22:56:08.390Z,2.10
2022-11-29T22:58:36.786Z,2.30
2022-11-29T23:01:06.588Z,2.50
2022-11-29T23:03:36.189Z,2.40
2022-11-29T23:06:06.210Z,2.20
2022-11-29T23:08:35.008Z,2.30
2022-11-29T23:11:04.901Z,2.50
2022-11-29T23:13:35.523Z,2.30
2022-11-29T23:16:05.131Z,2.00
2022-11-29T23:18:33.759Z,1.90
2022-11-29T23:21:02.822Z,2.00
2022-11-29T23:23:31.128Z,1.90
2022-11-29T23:25:59.945Z,2.10
2022-11-29T23:28:28.570Z,2.30
2022-11-29T23:30:59.491Z,2.30
2022-11-29T23:33:28.487Z,2.50
2022-11-29T23:36:02.103Z,2.90
2022-11-29T23:38:30.356Z,2.90
2022-11-29T23:40:58.612Z,2.80
2022-11-29T23:43:29.610Z,2.70
2022-11-29T23:45:59.358Z,2.80
2022-11-29T23:48:27.579Z,2.50
2022-11-29T23:50:55.523Z,2.30
2022-11-29T23:53:23.570Z,2.50
2022-11-29T23:55:57.546Z,2.60
2022-11-29T23:58:25.521Z,2.30
